Share

Las Vegas, NV

Las Vegas (KBJN) Elev 5761 ft | 37.61 °N, 116.26 °W | Change Station
Active Advisory: Wind AdvisoryFire Weather Watch

Current weather conditions updated 45 minutes ago

Clear
Clear
46 °F
Feels Like 41 °F
N
10
Wind Variable Wind from NW
Sunrise 6:01 AM
Sunset 7:26 PM
Moon Waning Gibbous

Today is forecast to be Warmer than yesterday.

Pressure 30.40 in
Visibility 10.0 miles
Clouds Clear
Windchill 41 °F
Dew Point 19 °F
Humidity 34%
Rainfall 0.00 in
Snow Depth Not available.
UV 0 out of 16
Pollen 9.00 out of 12
Air Quality Not available.
Flu Activity Sporadic
METAR KBJN 210956Z AUTO 31009KT 10SM CLR 08/M07 A3018 RMK AO2 SLP294 T00781072

More Conditions Fewer Conditions

Pressure 30.40 in
Visibility 10.0 miles
Clouds Clear
Windchill 41 °F
Dew Point 19 °F
Humidity 34%
Rainfall 0.00 in
Snow Depth Not available.
UV 0 out of 16
Pollen 9.00 out of 12
Air Quality Not available.
Flu Activity Sporadic
METAR KBJN 210956Z AUTO 31009KT 10SM CLR 08/M07 A3018 RMK AO2 SLP294 T00781072

More Conditions Fewer Conditions

10-Day Weather Forecast

Almanac

Astronomy

Apr. 21, 2014 Rise Set
Actual Time 6:01 AM PDT 7:26 PM PDT
Civil Twilight 5:34 AM PDT 7:53 PM PDT
Nautical Twilight 5:01 AM PDT 8:26 PM PDT
Astronomical Twilight 4:27 AM PDT 9:01 PM PDT
Moon 12:58 AM PDT 11:34 AM PDT
Length of Visible Light 14h 19m
Length of Day
13h 24m
Tomorrow will be 2m 12s longer.
Waning Gibbous, 60% of the Moon is Illuminated
Today
Waning Gibbous
Apr 22
Last Quarter
Apr 29
New
May 6
First Quarter
May 14
Full

Today's Extremes

State Highs State Lows

Community

  • Snowy Robin
    Snowy Robin
  • Sun Pillar and Geese
    Sun Pillar and Geese
  • Showers on the Way
    Showers on the Way
  • Easter Morning Fog
    Easter Morning Fog
  • Easter Dance
    Easter Dance

WunderPhotos

Upload Photos

1,703,587 photos uploaded!

WunderBlogs® & News

Nearby

Snow Depth

Station Depth Elevation
Big Creek Summit 31 in 8700 ft
Ward Mountain 0 in 9200 ft
Diamond Peak 2 in 8000 ft
Berry Creek 29 in 9100 ft
Corral Canyon 43 in 8500 ft

Coastal Water Temperatures

Place Temperature
No Stations Reporting

Earthquake Activity

City Distance Mag. Time & Date
Currant, Nevada 79 miles 2.8 4:04 PM PDT
2014-04-17
Minimum magnitude displayed is 2.5.

Nearby Weather Stations

There are no personal weather stations in this area.

What do you think?

We're not finished. Please let us know what you like, what you don't like, and what you are still missing.